Time;durP1;ratioP1;P1;durP2;ratioP2;P2;SDS_P1;SDS_P2;PMS_P1;PMS_P2;Temp;Humidity;BMP_temperature;BMP_pressure;BME280_temperature;BME280_humidity;BME280_pressure;Samples;Min_cycle;Max_cycle;Signal;HPM_P1;HPM_P2
2022/11/02 00:02:46;;;;;;;9.20;3.10;;;;;;;12.77;61.54;99399.34;6892866;28;20716;-77
2022/11/02 00:06:08;;;;;;;8.50;3.20;;;;;;;13.25;60.12;99404.47;6890816;28;20688;-77
2022/11/02 00:09:29;;;;;;;5.87;3.10;;;;;;;12.82;61.06;99407.69;6891670;28;20331;-77
2022/11/02 00:12:52;;;;;;;7.00;3.00;;;;;;;12.75;61.22;99398.75;6892367;28;20235;-77
2022/11/02 00:16:15;;;;;;;6.13;3.40;;;;;;;12.75;60.90;99404.97;6893534;28;20370;-77
2022/11/02 00:19:37;;;;;;;6.20;2.90;;;;;;;12.48;61.33;99389.72;6892910;28;20786;-77
2022/11/02 00:23:00;;;;;;;4.70;3.00;;;;;;;12.66;61.29;99392.69;6893099;28;20319;-78
2022/11/02 00:26:22;;;;;;;6.97;3.13;;;;;;;12.71;61.24;99411.00;6893391;28;20351;-78
2022/11/02 00:29:45;;;;;;;7.43;3.03;;;;;;;12.60;61.06;99412.44;6892414;28;20742;-77
2022/11/02 00:33:06;;;;;;;5.63;3.07;;;;;;;12.49;61.35;99413.00;6892760;28;20254;-77
2022/11/02 00:36:28;;;;;;;8.83;3.53;;;;;;;12.38;61.00;99410.88;6892782;28;20307;-78
2022/11/02 00:39:49;;;;;;;6.60;3.30;;;;;;;12.59;61.53;99418.03;6892289;28;20302;-77
2022/11/02 00:43:11;;;;;;;4.33;3.23;;;;;;;12.55;61.39;99423.03;6893996;28;21209;-78
2022/11/02 00:46:34;;;;;;;5.40;3.20;;;;;;;12.60;61.19;99412.44;6893668;28;20334;-77
2022/11/02 00:49:55;;;;;;;4.80;3.50;;;;;;;12.81;60.36;99411.44;6891737;28;20390;-77
2022/11/02 00:53:17;;;;;;;6.80;3.17;;;;;;;12.41;61.33;99415.91;6892705;28;20318;-77
2022/11/02 00:56:38;;;;;;;4.10;3.20;;;;;;;12.54;61.33;99426.78;6892301;28;20933;-78
2022/11/02 01:00:00;;;;;;;4.97;3.07;;;;;;;12.10;61.42;99393.09;6890874;28;20578;-77
2022/11/02 01:03:23;;;;;;;4.67;2.80;;;;;;;12.28;61.29;99432.03;6891941;28;20375;-77
2022/11/02 01:06:45;;;;;;;3.27;2.83;;;;;;;12.39;61.13;99430.66;6890780;28;20302;-77
2022/11/02 01:10:07;;;;;;;6.40;3.40;;;;;;;12.40;60.54;99416.09;6891885;28;20251;-77
2022/11/02 01:13:28;;;;;;;8.60;3.60;;;;;;;12.36;60.64;99420.22;6892035;28;20319;-77
2022/11/02 01:16:50;;;;;;;3.60;3.00;;;;;;;12.14;61.40;99419.50;6891322;28;20346;-77
2022/11/02 01:20:13;;;;;;;7.40;3.50;;;;;;;11.99;61.20;99429.59;6891189;28;20300;-77
2022/11/02 01:23:36;;;;;;;5.87;3.27;;;;;;;11.99;61.89;99417.97;6891914;28;20292;-77
2022/11/02 01:26:57;;;;;;;5.13;3.00;;;;;;;12.03;61.72;99411.97;6891820;28;20771;-77
2022/11/02 01:30:19;;;;;;;7.13;3.70;;;;;;;12.06;61.51;99426.94;6890573;28;20239;-77
2022/11/02 01:33:43;;;;;;;4.43;3.20;;;;;;;12.23;61.49;99422.88;6890835;28;20753;-77
2022/11/02 01:37:06;;;;;;;6.57;3.53;;;;;;;12.08;61.41;99414.06;6891822;28;20291;-77
2022/11/02 01:40:27;;;;;;;5.33;3.00;;;;;;;11.87;63.10;99431.19;6891101;28;20302;-77
2022/11/02 01:43:51;;;;;;;6.17;3.53;;;;;;;12.01;62.27;99403.22;6891803;28;20691;-77
2022/11/02 01:47:15;;;;;;;7.57;4.43;;;;;;;12.14;62.04;99414.09;6891212;28;20204;-77
2022/11/02 01:50:37;;;;;;;6.07;3.47;;;;;;;12.25;61.82;99415.41;6891206;28;20687;-77
2022/11/02 01:54:03;;;;;;;7.20;3.50;;;;;;;11.79;63.79;99408.88;6891706;28;20286;-77
2022/11/02 01:57:25;;;;;;;5.80;3.50;;;;;;;11.99;62.56;99394.47;6891240;28;20287;-79
2022/11/02 02:00:47;;;;;;;4.00;3.60;;;;;;;12.18;62.81;99412.69;6892062;28;20701;-80
2022/11/02 02:04:09;;;;;;;4.83;3.50;;;;;;;11.93;62.65;99368.25;6891769;28;20838;-80
2022/11/02 02:07:32;;;;;;;6.80;3.63;;;;;;;11.93;64.03;99410.66;6892934;28;20240;-80
2022/11/02 02:10:57;;;;;;;5.30;3.70;;;;;;;12.37;62.87;99393.00;6892335;28;20721;-80
2022/11/02 02:14:20;;;;;;;3.77;3.17;;;;;;;12.59;62.15;99386.44;6892480;28;20314;-80
2022/11/02 02:17:46;;;;;;;5.63;3.40;;;;;;;12.75;62.02;99388.72;6891198;28;20204;-78
2022/11/02 02:21:27;;;;;;;4.73;3.10;;;;;;;12.89;61.78;99371.50;6891492;28;20252;-77
2022/11/02 02:24:52;;;;;;;8.23;3.50;;;;;;;12.83;62.14;99366.06;6891261;28;20665;-77
2022/11/02 02:28:19;;;;;;;10.20;3.77;;;;;;;12.73;62.29;99361.06;6888903;28;20254;-77
2022/11/02 02:31:44;;;;;;;3.67;3.00;;;;;;;12.26;63.08;99366.53;6895873;28;20227;-77
2022/11/02 02:35:13;;;;;;;4.37;3.67;;;;;;;12.49;64.22;99361.63;6896501;28;20355;-80
2022/11/02 02:38:37;;;;;;;7.53;3.43;;;;;;;13.14;62.41;99360.91;6897015;28;20335;-80
2022/11/02 02:42:02;;;;;;;6.90;3.97;;;;;;;13.05;61.84;99348.63;6896384;28;20785;-77
2022/11/02 02:45:30;;;;;;;5.93;4.00;;;;;;;12.75;61.56;99361.69;6896175;28;20222;-77
2022/11/02 02:48:53;;;;;;;4.93;3.70;;;;;;;12.63;62.02;99332.75;6895533;28;20661;-77
2022/11/02 02:52:15;;;;;;;4.93;3.90;;;;;;;13.04;61.87;99360.50;6895894;28;20319;-78
2022/11/02 02:55:40;;;;;;;10.53;4.20;;;;;;;13.11;61.62;99355.94;6895951;28;20801;-77
2022/11/02 02:59:04;;;;;;;9.60;4.60;;;;;;;13.06;61.50;99374.66;6895497;28;20303;-77
2022/11/02 03:02:30;;;;;;;8.67;4.07;;;;;;;12.47;61.60;99352.88;6895820;28;20741;-77
2022/11/02 03:06:00;;;;;;;5.20;4.07;;;;;;;13.13;61.72;99354.69;6894716;28;20756;-77
2022/11/02 03:09:26;;;;;;;6.87;3.97;;;;;;;13.36;61.26;99349.69;6897880;28;20256;-77
2022/11/02 03:12:55;;;;;;;5.60;4.20;;;;;;;13.16;60.29;99348.03;6895867;28;20743;-80
2022/11/02 03:16:24;;;;;;;5.03;4.37;;;;;;;12.14;61.84;99333.00;6895745;28;20283;-80
2022/11/02 03:19:51;;;;;;;4.57;4.00;;;;;;;12.24;63.68;99356.94;6894914;28;20295;-79
2022/11/02 03:23:18;;;;;;;7.37;4.83;;;;;;;12.77;62.49;99351.50;6896447;28;20248;-80
2022/11/02 03:26:43;;;;;;;4.83;4.33;;;;;;;12.84;61.83;99340.66;6913617;28;20573;-77
2022/11/02 03:30:08;;;;;;;4.90;3.83;;;;;;;13.13;61.72;99349.28;6917653;28;20271;-78
2022/11/02 03:33:32;;;;;;;5.67;4.10;;;;;;;13.22;61.56;99353.41;6921938;28;20697;-78
2022/11/02 03:36:59;;;;;;;5.33;3.77;;;;;;;13.35;61.67;99361.56;6921488;28;20325;-78
2022/11/02 03:40:23;;;;;;;5.63;3.87;;;;;;;13.29;61.91;99359.66;6919650;28;20203;-78
2022/11/02 03:43:47;;;;;;;4.40;3.90;;;;;;;13.44;61.83;99360.28;6921619;28;20228;-78
2022/11/02 03:47:11;;;;;;;9.17;4.57;;;;;;;13.50;61.53;99348.63;6921412;28;20353;-78
2022/11/02 03:50:34;;;;;;;4.70;4.30;;;;;;;13.36;60.75;99373.22;6920831;28;20229;-78
2022/11/02 03:54:02;;;;;;;6.13;4.20;;;;;;;13.26;60.35;99372.78;6921274;28;20320;-78
2022/11/02 03:57:29;;;;;;;6.80;3.93;;;;;;;12.96;61.50;99383.19;6921009;28;20203;-78
2022/11/02 04:00:53;;;;;;;4.73;3.93;;;;;;;13.21;60.95;99362.59;6920726;28;20371;-78
2022/11/02 04:04:15;;;;;;;4.00;3.60;;;;;;;13.33;61.12;99369.03;6919801;28;20303;-78
2022/11/02 04:14:54;;;;;;;6.07;4.50;;;;;;;12.50;62.98;99381.38;6918813;28;20220;-78
2022/11/02 04:25:35;;;;;;;6.90;4.73;;;;;;;13.15;61.51;99378.84;6919446;28;20646;-78
2022/11/02 04:28:57;;;;;;;7.40;4.10;;;;;;;12.94;61.82;99379.00;6919908;28;20211;-78
2022/11/02 04:33:31;;;;;;;4.90;4.20;;;;;;;12.90;61.91;99381.28;6920419;28;20716;-78
2022/11/02 04:36:02;;;;;;;5.33;4.00;;;;;;;13.11;61.74;99391.13;6920181;28;20205;-78
2022/11/02 04:39:22;;;;;;;4.70;4.10;;;;;;;13.08;61.72;99386.09;6918286;28;20203;-78
2022/11/02 04:42:46;;;;;;;6.53;3.67;;;;;;;12.71;62.07;99359.59;6920140;28;20259;-78
2022/11/02 04:46:09;;;;;;;7.80;4.23;;;;;;;12.83;62.38;99393.97;6919867;28;20694;-79
2022/11/02 04:49:30;;;;;;;4.20;3.80;;;;;;;12.74;61.69;99400.59;6919060;28;20720;-78
2022/11/02 04:52:55;;;;;;;5.03;4.10;;;;;;;12.80;61.90;99394.38;6918860;28;20323;-79
2022/11/02 04:56:17;;;;;;;6.40;4.17;;;;;;;12.35;62.61;99373.44;6919617;28;20215;-78
2022/11/02 04:59:38;;;;;;;3.77;3.47;;;;;;;12.65;61.86;99384.75;6918830;28;20350;-78
2022/11/02 05:03:01;;;;;;;4.60;4.20;;;;;;;12.15;63.22;99413.06;6918715;28;20295;-78
2022/11/02 05:06:24;;;;;;;4.83;4.20;;;;;;;12.12;63.82;99418.88;6918938;28;20302;-78
2022/11/02 05:09:46;;;;;;;4.50;4.10;;;;;;;12.70;62.05;99402.03;6918521;28;20214;-78
2022/11/02 05:13:07;;;;;;;4.17;3.77;;;;;;;12.91;61.35;99399.19;6918516;28;20239;-78
2022/11/02 05:16:29;;;;;;;4.70;3.87;;;;;;;12.66;61.85;99413.47;6919347;28;20299;-79
2022/11/02 05:19:51;;;;;;;4.50;4.10;;;;;;;12.34;63.04;99408.78;6918231;28;20350;-79
2022/11/02 05:23:13;;;;;;;4.53;3.97;;;;;;;11.89;63.02;99393.16;6918865;28;20339;-80
2022/11/02 05:26:34;;;;;;;8.23;4.50;;;;;;;12.16;64.69;99403.91;6919092;28;20302;-80
2022/11/02 05:29:56;;;;;;;5.57;4.73;;;;;;;12.24;63.48;99421.84;6918085;28;20272;-80
2022/11/02 05:33:18;;;;;;;6.17;4.07;;;;;;;12.50;63.46;99430.91;6918890;28;20235;-80
2022/11/02 05:36:40;;;;;;;5.63;3.67;;;;;;;12.92;62.31;99417.09;6921085;28;20295;-80
2022/11/02 05:40:02;;;;;;;7.40;4.57;;;;;;;12.50;62.85;99421.94;6917298;28;20261;-80
2022/11/02 05:43:24;;;;;;;6.60;3.93;;;;;;;12.35;62.57;99419.41;6910668;28;20334;-79
2022/11/02 05:46:45;;;;;;;7.13;3.93;;;;;;;12.10;63.77;99414.72;6921752;28;20287;-80
2022/11/02 05:50:09;;;;;;;4.20;3.80;;;;;;;12.42;63.84;99430.25;6912747;28;20314;-80
2022/11/02 05:53:36;;;;;;;7.23;3.93;;;;;;;12.36;64.01;99426.50;6909299;28;20281;-80
2022/11/02 05:56:57;;;;;;;6.43;3.83;;;;;;;12.49;63.74;99421.13;6893307;28;20294;-80
2022/11/02 06:00:19;;;;;;;8.90;4.50;;;;;;;12.94;62.65;99416.88;6908863;28;20243;-80
2022/11/02 06:03:41;;;;;;;5.60;3.70;;;;;;;12.32;64.03;99416.25;6925388;28;20251;-80
2022/11/02 06:07:03;;;;;;;5.00;3.90;;;;;;;12.36;63.40;99396.75;6927751;28;20208;-80
2022/11/02 06:10:26;;;;;;;5.47;3.67;;;;;;;12.75;63.12;99437.44;6925487;28;20207;-80
2022/11/02 06:13:50;;;;;;;8.93;3.53;;;;;;;12.92;63.41;99429.81;6925649;28;20243;-80
2022/11/02 06:17:11;;;;;;;7.03;3.80;;;;;;;12.31;63.78;99404.63;6929165;28;20207;-80
2022/11/02 06:20:33;;;;;;;4.50;3.30;;;;;;;12.97;62.95;99435.44;6924864;28;20326;-80
2022/11/02 06:23:54;;;;;;;6.53;3.80;;;;;;;13.28;62.45;99443.84;6925777;28;20298;-80
2022/11/02 06:27:17;;;;;;;6.27;3.70;;;;;;;13.01;62.96;99442.13;6926184;28;20296;-80
2022/11/02 06:30:39;;;;;;;7.37;3.57;;;;;;;13.65;62.79;99449.50;6924382;28;20681;-76
2022/11/02 06:34:00;;;;;;;5.67;2.97;;;;;;;13.18;62.69;99441.53;6923834;28;20295;-77
2022/11/02 06:37:22;;;;;;;7.17;3.30;;;;;;;13.76;61.21;99458.84;6923922;28;20211;-77
2022/11/02 06:40:53;;;;;;;6.57;3.33;;;;;;;13.89;60.80;99473.25;6922323;28;20212;-77
2022/11/02 06:44:16;;;;;;;6.17;3.60;;;;;;;13.46;60.95;99473.88;6923776;28;20694;-77
2022/11/02 06:47:37;;;;;;;7.23;4.00;;;;;;;13.70;61.16;99465.94;6922876;28;20238;-77
2022/11/02 06:50:59;;;;;;;7.83;3.87;;;;;;;14.22;60.23;99467.81;6923524;28;20306;-77
2022/11/02 06:54:21;;;;;;;7.40;3.40;;;;;;;14.40;59.87;99474.19;6923225;28;20328;-77
2022/11/02 06:57:43;;;;;;;4.03;3.37;;;;;;;14.38;60.11;99495.28;6923085;28;20569;-78
2022/11/02 07:01:07;;;;;;;6.87;2.87;;;;;;;14.31;60.47;99496.34;6922947;28;20307;-78
2022/11/02 07:04:28;;;;;;;7.53;3.17;;;;;;;14.87;59.34;99494.72;6923098;28;20264;-77
2022/11/02 07:07:52;;;;;;;7.00;2.83;;;;;;;14.89;58.81;99506.19;6922568;28;20308;-80
2022/11/02 07:11:15;;;;;;;8.80;2.97;;;;;;;14.78;59.32;99506.84;6923362;28;20261;-76
2022/11/02 07:14:36;;;;;;;6.23;3.03;;;;;;;15.15;58.51;99519.66;6922300;28;20707;-77
2022/11/02 07:17:59;;;;;;;7.97;2.53;;;;;;;15.43;57.82;99512.81;6922134;28;20243;-78
2022/11/02 07:21:20;;;;;;;8.80;2.60;;;;;;;15.58;57.99;99531.53;6922804;28;20293;-78
2022/11/02 07:24:42;;;;;;;5.83;2.97;;;;;;;15.48;58.22;99526.59;6923013;28;20242;-75
2022/11/02 07:28:04;;;;;;;7.30;3.10;;;;;;;15.62;58.15;99530.88;6922610;28;20308;-78
2022/11/02 07:31:25;;;;;;;5.03;2.40;;;;;;;16.06;57.25;99536.19;6922912;28;20244;-78
2022/11/02 07:34:48;;;;;;;5.90;2.90;;;;;;;15.72;57.96;99550.25;6922150;28;20235;-77
2022/11/02 07:38:11;;;;;;;7.13;3.17;;;;;;;15.43;58.01;99550.03;6920731;28;20318;-79
2022/11/02 07:41:32;;;;;;;4.80;2.73;;;;;;;15.23;58.41;99539.22;6898153;28;20263;-78
2022/11/02 07:44:54;;;;;;;7.93;2.97;;;;;;;15.38;58.02;99534.38;6909364;28;20293;-78
2022/11/02 07:48:15;;;;;;;6.73;2.40;;;;;;;16.10;56.89;99561.06;6914888;28;20272;-78
2022/11/02 07:51:38;;;;;;;7.43;2.50;;;;;;;16.41;55.65;99563.75;6925086;28;20273;-77
2022/11/02 07:55:00;;;;;;;9.53;2.67;;;;;;;15.88;56.55;99554.31;6923685;28;20255;-78
2022/11/02 07:58:21;;;;;;;6.07;2.60;;;;;;;16.11;55.90;99563.53;6924670;28;20215;-78
2022/11/02 08:01:43;;;;;;;5.83;2.70;;;;;;;16.66;55.69;99562.66;6924374;28;20749;-78
2022/11/02 08:05:05;;;;;;;7.00;3.10;;;;;;;15.87;56.86;99566.25;6923945;28;20239;-78
2022/11/02 08:08:28;;;;;;;8.27;2.93;;;;;;;16.74;55.08;99564.25;6923015;28;20220;-78
2022/11/02 08:11:49;;;;;;;8.23;3.10;;;;;;;16.57;54.61;99566.72;6923987;28;20267;-78
2022/11/02 08:15:11;;;;;;;6.33;2.47;;;;;;;17.29;53.98;99565.88;6923802;28;20373;-78
2022/11/02 08:18:32;;;;;;;9.20;3.20;;;;;;;17.58;53.90;99567.81;6922458;28;20730;-78
2022/11/02 08:21:55;;;;;;;7.20;2.87;;;;;;;17.70;53.33;99569.50;6914352;28;20225;-78
2022/11/02 08:25:18;;;;;;;9.60;3.47;;;;;;;18.28;51.34;99556.00;6922374;28;20231;-79
2022/11/02 08:28:40;;;;;;;7.37;2.87;;;;;;;18.69;49.70;99559.47;6920259;28;20209;-78
2022/11/02 08:32:01;;;;;;;6.63;2.50;;;;;;;19.17;48.01;99562.72;6921935;28;20251;-78
2022/11/02 08:35:23;;;;;;;10.73;2.27;;;;;;;20.18;45.27;99555.41;6923957;28;20237;-78
2022/11/02 08:38:44;;;;;;;6.73;2.57;;;;;;;19.57;47.80;99565.47;6920398;28;20211;-79
2022/11/02 08:42:07;;;;;;;8.60;3.30;;;;;;;19.94;45.85;99542.91;6922834;28;20238;-79
2022/11/02 08:45:30;;;;;;;3.47;2.10;;;;;;;19.57;46.15;99554.53;6922608;28;20267;-80
2022/11/02 08:48:59;;;;;;;5.73;2.60;;;;;;;19.72;46.80;99565.75;7054207;27;20552;-79
2022/11/02 08:52:21;;;;;;;5.10;2.30;;;;;;;19.82;46.98;99566.75;7000675;28;20335;-79
2022/11/02 08:55:42;;;;;;;7.27;2.77;;;;;;;19.80;46.29;99555.25;7001044;28;20283;-79
2022/11/02 08:59:04;;;;;;;4.93;2.50;;;;;;;19.35;47.90;99545.34;7000062;28;20229;-79
2022/11/02 09:02:25;;;;;;;9.20;2.73;;;;;;;19.09;47.17;99452.91;7000397;28;20323;-79
2022/11/02 09:05:48;;;;;;;4.90;2.30;;;;;;;19.79;47.10;99580.13;7000356;28;20301;-79
2022/11/02 09:09:10;;;;;;;6.93;2.83;;;;;;;19.76;46.85;99566.94;7002188;28;20372;-77
2022/11/02 09:12:31;;;;;;;8.07;2.97;;;;;;;19.78;47.20;99576.56;7000360;28;20218;-79
2022/11/02 09:15:54;;;;;;;6.93;2.67;;;;;;;19.84;47.97;99578.31;6998057;28;20280;-77
2022/11/02 09:19:16;;;;;;;11.33;3.03;;;;;;;19.80;49.12;99573.59;6997727;28;20233;-77
2022/11/02 09:22:38;;;;;;;5.63;2.47;;;;;;;19.50;48.67;99572.97;6998089;28;20237;-77
2022/11/02 09:26:00;;;;;;;5.40;2.57;;;;;;;19.65;47.50;99544.03;6998868;28;20259;-77
2022/11/02 09:29:22;;;;;;;4.20;2.30;;;;;;;20.06;46.64;99560.13;6998593;28;20234;-78
2022/11/02 09:32:43;;;;;;;8.20;2.73;;;;;;;20.14;46.53;99576.16;7013897;28;20676;-78
2022/11/02 09:36:06;;;;;;;5.80;2.37;;;;;;;20.18;47.25;99576.47;7026716;28;20287;-77
2022/11/02 09:39:29;;;;;;;6.50;2.93;;;;;;;20.14;46.70;99564.34;7001087;28;20292;-77
2022/11/02 09:42:59;;;;;;;8.13;2.20;;;;;;;19.80;47.15;99585.34;6998273;28;20971;-77
2022/11/02 09:46:24;;;;;;;6.20;2.57;;;;;;;20.27;46.20;99581.28;6997918;28;20229;-78
2022/11/02 09:49:46;;;;;;;4.77;2.37;;;;;;;19.96;47.13;99590.03;6999568;28;20281;-77
2022/11/02 09:53:10;;;;;;;4.83;2.47;;;;;;;20.13;47.02;99577.22;7006984;28;20253;-77
2022/11/02 09:56:33;;;;;;;7.40;2.60;;;;;;;19.59;47.73;99557.84;7027317;28;20264;-78
2022/11/02 09:59:55;;;;;;;7.30;2.60;;;;;;;19.80;47.71;99600.97;7009014;28;20208;-76
2022/11/02 10:03:23;;;;;;;5.53;2.40;;;;;;;19.96;47.82;99570.03;6998956;28;20290;-77
2022/11/02 10:06:51;;;;;;;4.80;2.27;;;;;;;19.50;48.17;99605.81;6997619;28;20220;-77
2022/11/02 10:10:15;;;;;;;6.70;2.10;;;;;;;19.60;48.35;99603.28;7002856;28;20634;-76
2022/11/02 10:13:42;;;;;;;5.80;2.47;;;;;;;19.85;47.69;99595.56;7006303;28;20229;-77
2022/11/02 10:17:10;;;;;;;5.77;2.57;;;;;;;19.81;46.02;99573.31;7006699;28;20261;-77
2022/11/02 10:20:35;;;;;;;6.13;2.50;;;;;;;19.66;48.48;99583.16;7005523;28;20212;-77
2022/11/02 10:24:00;;;;;;;7.23;2.67;;;;;;;20.10;46.35;99588.66;7001271;28;20240;-77
2022/11/02 10:27:26;;;;;;;6.10;2.60;;;;;;;20.05;46.97;99576.78;7007420;28;20284;-77
2022/11/02 10:30:49;;;;;;;6.30;2.07;;;;;;;19.99;46.92;99584.03;7006029;28;20217;-76
2022/11/02 10:34:19;;;;;;;7.90;2.60;;;;;;;20.10;46.87;99569.50;7007568;28;20233;-77
2022/11/02 10:37:49;;;;;;;6.80;2.90;;;;;;;19.99;46.15;99584.03;7005669;28;20187;-78
2022/11/02 10:41:21;;;;;;;9.37;2.70;;;;;;;19.71;45.93;99589.56;7003855;28;20232;-77
2022/11/02 10:44:55;;;;;;;5.63;2.30;;;;;;;19.80;45.18;99568.13;7005126;28;20193;-78
2022/11/02 10:48:28;;;;;;;8.10;3.53;;;;;;;19.89;45.94;99585.78;7003657;28;20387;-78
2022/11/02 10:51:49;;;;;;;3.20;1.97;;;;;;;19.82;44.39;99585.09;7004431;28;20591;-78
2022/11/02 10:55:19;;;;;;;7.67;2.40;;;;;;;19.92;44.75;99571.63;7002773;28;20217;-77
2022/11/02 10:58:45;;;;;;;7.93;2.67;;;;;;;19.50;45.85;99564.78;7003919;28;20288;-77
2022/11/02 11:02:12;;;;;;;6.73;2.40;;;;;;;20.33;44.83;99583.03;7004091;28;20244;-78
2022/11/02 11:05:37;;;;;;;6.83;2.57;;;;;;;20.42;45.37;99581.56;7004578;28;20190;-78
2022/11/02 11:09:04;;;;;;;14.23;2.67;;;;;;;20.12;45.56;99574.72;7003073;28;20277;-77
2022/11/02 11:12:30;;;;;;;8.17;2.57;;;;;;;20.08;45.57;99566.19;6995480;28;20267;-78
2022/11/02 11:15:52;;;;;;;9.90;3.13;;;;;;;20.13;45.74;99584.59;6998062;28;20293;-78
2022/11/02 11:19:21;;;;;;;10.03;2.30;;;;;;;20.21;45.42;99575.97;7003599;28;20256;-79
2022/11/02 11:22:44;;;;;;;16.53;6.97;;;;;;;20.16;45.71;99584.13;7004909;28;20313;-79
2022/11/02 11:26:08;;;;;;;10.77;4.37;;;;;;;19.93;46.90;99540.44;7004876;28;20260;-80
2022/11/02 11:29:31;;;;;;;7.47;3.27;;;;;;;19.98;46.37;99563.22;7003944;28;20230;-79
2022/11/02 11:32:53;;;;;;;6.93;2.77;;;;;;;20.09;45.17;99559.63;7003386;28;20237;-78
2022/11/02 11:36:23;;;;;;;9.77;2.90;;;;;;;19.84;44.53;99566.53;7003157;28;20288;-78
2022/11/02 11:39:51;;;;;;;5.13;2.60;;;;;;;20.09;44.31;99559.63;6987600;28;20198;-78
2022/11/02 11:43:16;;;;;;;9.23;2.90;;;;;;;19.96;44.53;99561.81;6975325;28;20281;-80
2022/11/02 11:46:41;;;;;;;7.53;2.90;;;;;;;20.26;44.71;99565.09;6978687;28;20222;-79
2022/11/02 11:50:05;;;;;;;7.57;2.70;;;;;;;20.37;44.28;99561.47;7002180;28;20213;-78
2022/11/02 11:53:26;;;;;;;7.87;2.90;;;;;;;20.67;44.22;99560.84;6978098;28;20264;-79
2022/11/02 11:56:51;;;;;;;8.67;2.47;;;;;;;20.73;43.38;99563.66;6976200;28;20339;-79
2022/11/02 12:00:26;;;;;;;6.27;2.53;;;;;;;20.78;42.76;99553.59;6975038;28;20214;-79
2022/11/02 12:03:54;;;;;;;10.03;2.60;;;;;;;20.78;43.02;99551.69;6982675;28;20252;-79
2022/11/02 12:07:35;;;;;;;5.40;2.00;;;;;;;20.69;42.96;99541.41;7003093;28;20704;-80
2022/11/02 12:11:05;;;;;;;7.43;2.30;;;;;;;20.79;42.83;99538.81;7002440;28;20720;-79
2022/11/02 12:14:39;;;;;;;5.63;2.37;;;;;;;21.34;41.83;99534.06;7003445;28;20287;-81
2022/11/02 12:18:13;;;;;;;6.47;2.50;;;;;;;20.69;42.76;99529.63;7001871;28;20303;-80
2022/11/02 12:21:45;;;;;;;7.10;2.80;;;;;;;20.51;43.22;99538.13;7002975;28;20314;-79
2022/11/02 12:25:20;;;;;;;7.63;2.20;;;;;;;21.84;40.94;99510.75;6999502;28;20197;-79
2022/11/02 12:28:46;;;;;;;5.40;2.70;;;;;;;20.59;42.92;99497.44;7001677;28;20261;-79
2022/11/02 12:32:19;;;;;;;8.27;2.40;;;;;;;20.56;42.89;99524.47;7001774;28;20223;-79
2022/11/02 12:35:56;;;;;;;12.13;2.60;;;;;;;20.26;43.13;99513.06;7002545;28;20280;-79
2022/11/02 12:39:26;;;;;;;5.40;2.43;;;;;;;20.57;43.13;99516.00;6998010;28;20247;-79
2022/11/02 12:42:54;;;;;;;8.13;3.90;;;;;;;20.61;42.70;99510.84;6986727;28;20232;-79
2022/11/02 12:46:29;;;;;;;9.00;2.90;;;;;;;20.95;42.29;99505.09;7001526;28;20745;-78
2022/11/02 12:49:59;;;;;;;9.90;2.80;;;;;;;20.72;42.38;99515.41;7000676;28;20297;-79
2022/11/02 12:53:36;;;;;;;9.03;2.70;;;;;;;20.81;43.28;99497.47;7000354;28;20224;-79
2022/11/02 12:56:58;;;;;;;7.47;2.50;;;;;;;20.67;42.51;99456.69;7002405;28;20687;-79
2022/11/02 13:00:20;;;;;;;10.37;2.60;;;;;;;20.53;42.80;99501.19;7000609;28;20338;-79
2022/11/02 13:03:49;;;;;;;6.23;2.70;;;;;;;21.02;42.14;99492.81;7008190;28;20747;-79
2022/11/02 13:07:13;;;;;;;8.97;2.50;;;;;;;20.94;41.92;99473.25;7018732;28;20303;-80
2022/11/02 13:10:40;;;;;;;7.30;2.63;;;;;;;21.11;41.94;99487.72;7000033;28;20289;-80
2022/11/02 13:14:04;;;;;;;6.63;2.63;;;;;;;21.35;41.93;99489.94;6979565;28;20206;-80
2022/11/02 13:17:29;;;;;;;7.97;2.30;;;;;;;20.47;42.12;99476.69;6972804;28;20289;-79
2022/11/02 13:20:53;;;;;;;4.97;2.10;;;;;;;21.10;41.48;99507.19;6973239;28;20211;-79
2022/11/02 13:24:18;;;;;;;9.47;2.60;;;;;;;20.83;41.16;99496.94;6973741;28;20207;-79
2022/11/02 13:27:47;;;;;;;8.70;2.40;;;;;;;20.38;41.27;99445.31;6973437;28;20286;-80
2022/11/02 13:31:13;;;;;;;8.10;2.70;;;;;;;21.50;39.57;99472.78;6976695;28;20248;-80
2022/11/02 13:34:36;;;;;;;10.80;2.83;;;;;;;21.43;40.27;99474.91;6976864;28;20348;-79
2022/11/02 13:38:02;;;;;;;5.77;2.50;;;;;;;21.27;40.94;99467.59;6978657;28;20329;-79
2022/11/02 13:41:37;;;;;;;5.67;2.27;;;;;;;21.12;40.70;99466.59;6979390;28;20247;-79
2022/11/02 13:45:23;;;;;;;10.50;2.70;;;;;;;21.24;40.95;99455.22;6979305;28;20208;-79
2022/11/02 13:49:00;;;;;;;8.57;2.50;;;;;;;21.56;40.15;99463.53;6979297;28;20313;-79
2022/11/02 13:52:36;;;;;;;6.47;2.33;;;;;;;20.90;40.94;99476.75;7006541;28;20316;-79
2022/11/02 13:56:00;;;;;;;5.67;2.60;;;;;;;19.85;42.71;99480.59;7007480;28;20861;-79
2022/11/02 13:59:26;;;;;;;9.73;2.80;;;;;;;19.84;43.01;99481.69;7010193;28;20673;-80
2022/11/02 14:02:49;;;;;;;6.20;2.20;;;;;;;19.63;42.55;99455.88;7013825;28;20278;-79
2022/11/02 14:06:12;;;;;;;7.07;2.27;;;;;;;20.39;41.83;99472.47;6995945;28;20244;-79
2022/11/02 14:09:37;;;;;;;5.03;2.10;;;;;;;20.31;41.57;99466.59;6977897;28;20317;-79
2022/11/02 14:12:59;;;;;;;6.00;2.50;;;;;;;20.60;41.43;99471.69;6978642;28;20234;-79
2022/11/02 14:16:44;;;;;;;5.97;3.50;;;;;;;20.59;43.03;99471.94;6978598;28;20342;-79
2022/11/02 14:20:31;;;;;;;9.10;3.70;;;;;;;20.43;43.86;99478.28;6978781;28;20194;-78
2022/11/02 14:23:53;;;;;;;7.47;2.70;;;;;;;20.63;43.44;99476.66;6978400;28;20273;-79
2022/11/02 14:27:28;;;;;;;9.03;3.30;;;;;;;20.40;43.80;99444.00;6978390;28;20700;-78
2022/11/02 14:30:54;;;;;;;10.63;5.60;;;;;;;20.36;44.66;99453.81;6977818;28;20282;-80
2022/11/02 14:34:33;;;;;;;9.63;3.80;;;;;;;20.43;44.39;99478.28;6978189;28;20259;-79
2022/11/02 14:38:10;;;;;;;6.87;2.77;;;;;;;20.16;45.69;99480.06;6977500;28;20225;-80
2022/11/02 14:42:08;;;;;;;5.60;2.50;;;;;;;19.98;46.87;99480.28;6977904;28;20228;-79
2022/11/02 14:45:38;;;;;;;4.77;2.40;;;;;;;20.07;46.45;99470.59;6941280;28;20202;-80
2022/11/02 14:49:00;;;;;;;5.93;2.67;;;;;;;19.91;46.59;99474.97;6977165;28;20309;-80
2022/11/02 14:52:28;;;;;;;6.67;3.30;;;;;;;19.27;48.60;99458.25;6983295;28;20308;-78
2022/11/02 14:55:53;;;;;;;5.87;2.30;;;;;;;19.62;47.81;99467.91;7004803;28;20332;-79
2022/11/02 14:59:18;;;;;;;8.43;2.67;;;;;;;19.28;47.90;99471.66;7003847;28;20297;-80
2022/11/02 15:02:40;;;;;;;6.00;2.50;;;;;;;19.50;47.70;99467.16;7005929;28;20299;-80
2022/11/02 15:06:03;;;;;;;8.90;3.40;;;;;;;19.46;48.16;99465.97;7004714;28;20237;-79
2022/11/02 15:09:58;;;;;;;8.57;2.50;;;;;;;19.47;47.67;99458.59;7002294;28;20325;-80
2022/11/02 15:13:38;;;;;;;5.00;2.30;;;;;;;19.39;47.24;99459.81;6977216;28;20323;-79
2022/11/02 15:17:00;;;;;;;6.50;2.53;;;;;;;18.93;48.55;99470.09;6963572;28;20257;-80
2022/11/02 15:20:39;;;;;;;7.13;2.83;;;;;;;19.06;48.59;99457.00;6976492;28;20336;-79
2022/11/02 15:24:12;;;;;;;9.90;2.83;;;;;;;18.57;49.18;99454.03;6977020;28;20286;-78
2022/11/02 15:27:36;;;;;;;10.93;2.67;;;;;;;18.79;48.90;99455.03;6975934;28;20210;-80
2022/11/02 15:31:01;;;;;;;8.27;2.90;;;;;;;18.56;49.29;99453.19;6987569;28;20772;-80
2022/11/02 15:34:28;;;;;;;9.67;3.53;;;;;;;17.98;50.55;99441.47;7004141;28;20243;-80
2022/11/02 15:37:57;;;;;;;9.37;3.33;;;;;;;17.98;50.64;99438.72;7002981;28;20335;-79
2022/11/02 15:41:25;;;;;;;8.27;3.40;;;;;;;17.57;52.14;99447.00;7013175;28;20319;-79
2022/11/02 15:45:16;;;;;;;10.60;3.83;;;;;;;17.86;51.47;99442.53;7031735;28;20227;-79
2022/11/02 15:48:43;;;;;;;10.47;4.03;;;;;;;17.39;52.44;99449.78;7028185;28;20314;-80
2022/11/02 15:52:09;;;;;;;9.13;4.17;;;;;;;17.53;52.05;99442.25;7031842;28;20321;-79
2022/11/02 15:55:39;;;;;;;11.87;4.00;;;;;;;17.06;52.21;99405.84;7015378;28;20556;-79
2022/11/02 15:59:23;;;;;;;15.13;4.20;;;;;;;16.51;54.10;99398.00;6976566;28;20200;-78
2022/11/02 16:02:47;;;;;;;11.50;4.30;;;;;;;16.84;54.04;99440.09;6975917;28;20229;-79
2022/11/02 16:06:09;;;;;;;11.77;4.70;;;;;;;16.86;53.84;99445.31;6976175;28;20295;-79
2022/11/02 16:09:32;;;;;;;10.50;4.23;;;;;;;17.00;53.49;99449.50;6975810;28;20735;-79
2022/11/02 16:12:58;;;;;;;8.60;4.20;;;;;;;16.44;54.44;99457.97;6975866;28;20229;-79
2022/11/02 16:16:21;;;;;;;9.60;4.20;;;;;;;16.02;55.57;99455.22;6975485;28;20212;-80
2022/11/02 16:19:43;;;;;;;14.33;4.80;;;;;;;16.24;55.36;99451.03;6975075;28;20208;-78